Pagrindinis puslapis
METAR-TAF:

METAR-TAF

Oro uostai :

Rygos oro uostas

Ryga, Latvija

platuma: 56-55N, ilguma: 023-58E, Aukštis: 10 m

Dabartinis oras

Ataskaita buvo paskelbta 21 minutes, ne 09:50 UTC
Vėjas 11 kt iš Pietvakarių, svyruoja nuo Pietų ir Vakarų
Temperatūra 7°C
Drėgmė 76%
Slėgis 1003 hPa
Matomumas 10 km arba daugiau
Mažai debesys ne aukštis 1900 ft, Liūtiniai kamuoliniai debesys.
Su prošvaistėmis ne aukštis 2300 ft
Apsiniaukę ne aukštis 3000 ft

METAR: EVRA 180950Z 22011KT 190V260 9999 FEW019CB BKN023 OVC030 07/03 Q1003 R18/190095 NOSIG

Laikas: 12:11 (10:11 UTC)

Prognozė

Ataskaita buvo paskelbta 2 valandos ir 10 minutes, ne 08:01 UTC
Prognozė galioja nuo 18 metu 09 UTC su 19 metu 09 UTC
Vėjas 12 kt iš Pietvakarių
Matomumas 10 km arba daugiau
Su prošvaistėmis ne aukštis 3000 ft
Laikinai
nuo 18 metu 09 UTC su 18 metu 24 UTC
Išsisklaidę debesys ne aukštis 2000 ft, Liūtiniai kamuoliniai debesys.

TAF: EVRA 180801Z 1809/1909 22012KT 9999 BKN030 TEMPO 1809/1824 SCT020CB

Orai ataskaitas ir orų prognozės (METAR, TAF).

turimą stotys yra geltonos ir raudonos taškus žemėlapyje.

Perkelti pele per norėdami pamatyti stoties vardą.

Tada spustelėkite, norėdami matyti oro stebėjimo ir prognozės.

Norėdami pakeisti žemėlapį: spustelėkite ant žalios mygtukų su juodo kryžiaus žemyn,; žalią mygtuką su brūkšneliu, jei norite nutolinti; arba žalių rodyklių gretimoms žemėlapius.


METAR-TAF: